Attica Junction, Ohio
Current Conditions -  °F | °C
As of 4:52 PM on Sunday 23 Nov 2014 (Local Time) from KMFD Reporting Station
Clear Clear  
Wind Chill: 58°   Ceiling: Unl
Heat Index: 58°   Visibility: 10mi
Dew Point: 43°   Wind: 15mph
Humidity: 58%   Direction: 120°ESE
Pressure: 29.69"   Gusts: NA
Location:  41.0654°N, 82.876°W
Report Text: KMFD 232152Z 12013KT 10SM CLR 14/06 A2969 RMK AO2 SLP053 T01440061
Loading
Personal Weather Stations






























Interactive Weather Map New forecast layout! Learn more

10-Day Weather Forecast

Advertisements
Track Severe Weather on mobile